Johstadt, Germany
Current Conditions -  °F | °C
As of 11:00 PM on Thursday 23 Oct 2014 (Local Time) from LKKV Reporting Station
Broken Clouds Broken Clouds  
Wind Chill: 45°   Ceiling: 3000
Heat Index: 45°   Visibility: 6mi
Dew Point: 43°   Wind: 3mph
Humidity: 93%   Direction: 320°NW
Pressure: 30.21"   Gusts: NA
Location:  50.55°N, 13.13°E
Report Text: LKKV 232100Z 32003KT 9999 BKN030 07/06 Q1023
Loading
Personal Weather Stations






























Interactive Weather Map
Tropical Storm Tracking
New forecast layout! Learn more

10-Day Weather Forecast

Advertisements
Track Severe Weather on mobile